sensor_id;sensor_type;location;lat;lon;timestamp;temperature;humidity
26107;DHT22;13866;50.748;12.630;2023-04-19T00:01:21;7.10;99.90
26107;DHT22;13866;50.748;12.630;2023-04-19T00:03:47;7.20;99.90
26107;DHT22;13866;50.748;12.630;2023-04-19T00:06:13;7.10;99.90
26107;DHT22;13866;50.748;12.630;2023-04-19T00:08:40;7.20;99.90
26107;DHT22;13866;50.748;12.630;2023-04-19T00:11:07;7.10;99.90
26107;DHT22;13866;50.748;12.630;2023-04-19T00:13:32;7.10;99.90
26107;DHT22;13866;50.748;12.630;2023-04-19T00:15:58;7.10;99.90
26107;DHT22;13866;50.748;12.630;2023-04-19T00:18:23;7.10;99.90
26107;DHT22;13866;50.748;12.630;2023-04-19T00:20:49;7.10;99.90
26107;DHT22;13866;50.748;12.630;2023-04-19T00:23:14;7.10;99.90
26107;DHT22;13866;50.748;12.630;2023-04-19T00:25:40;7.10;99.90
26107;DHT22;13866;50.748;12.630;2023-04-19T00:28:05;7.10;99.90
26107;DHT22;13866;50.748;12.630;2023-04-19T00:30:31;7.10;99.90
26107;DHT22;13866;50.748;12.630;2023-04-19T00:32:56;7.10;99.90
26107;DHT22;13866;50.748;12.630;2023-04-19T00:35:22;7.10;99.90
26107;DHT22;13866;50.748;12.630;2023-04-19T00:37:47;7.10;99.90
26107;DHT22;13866;50.748;12.630;2023-04-19T00:40:13;7.10;99.90
26107;DHT22;13866;50.748;12.630;2023-04-19T00:42:39;7.10;99.90
26107;DHT22;13866;50.748;12.630;2023-04-19T00:45:04;7.10;99.90
26107;DHT22;13866;50.748;12.630;2023-04-19T00:47:30;7.10;99.90
26107;DHT22;13866;50.748;12.630;2023-04-19T00:49:56;7.10;99.90
26107;DHT22;13866;50.748;12.630;2023-04-19T00:52:22;7.10;99.90
26107;DHT22;13866;50.748;12.630;2023-04-19T00:54:48;7.10;99.90
26107;DHT22;13866;50.748;12.630;2023-04-19T00:57:14;7.10;99.90
26107;DHT22;13866;50.748;12.630;2023-04-19T00:59:41;7.10;99.90
26107;DHT22;13866;50.748;12.630;2023-04-19T01:02:07;7.10;99.90
26107;DHT22;13866;50.748;12.630;2023-04-19T01:04:33;7.10;99.90
26107;DHT22;13866;50.748;12.630;2023-04-19T01:06:58;7.10;99.90
26107;DHT22;13866;50.748;12.630;2023-04-19T01:09:24;7.00;99.90
26107;DHT22;13866;50.748;12.630;2023-04-19T01:11:49;7.00;99.90
26107;DHT22;13866;50.748;12.630;2023-04-19T01:14:15;7.00;99.90
26107;DHT22;13866;50.748;12.630;2023-04-19T01:16:40;7.00;99.90
26107;DHT22;13866;50.748;12.630;2023-04-19T01:19:06;7.00;99.90
26107;DHT22;13866;50.748;12.630;2023-04-19T01:21:32;7.00;99.90
26107;DHT22;13866;50.748;12.630;2023-04-19T01:23:57;7.00;99.90
26107;DHT22;13866;50.748;12.630;2023-04-19T01:26:23;7.00;99.90
26107;DHT22;13866;50.748;12.630;2023-04-19T01:28:48;7.00;99.90
26107;DHT22;13866;50.748;12.630;2023-04-19T01:31:14;7.00;99.90
26107;DHT22;13866;50.748;12.630;2023-04-19T01:33:40;7.00;99.90
26107;DHT22;13866;50.748;12.630;2023-04-19T01:36:05;7.00;99.90
26107;DHT22;13866;50.748;12.630;2023-04-19T01:38:31;6.90;99.90
26107;DHT22;13866;50.748;12.630;2023-04-19T01:40:57;7.00;99.90
26107;DHT22;13866;50.748;12.630;2023-04-19T01:43:22;7.00;99.90
26107;DHT22;13866;50.748;12.630;2023-04-19T01:45:47;6.90;99.90
26107;DHT22;13866;50.748;12.630;2023-04-19T01:48:13;6.90;99.90
26107;DHT22;13866;50.748;12.630;2023-04-19T01:50:39;6.90;99.90
26107;DHT22;13866;50.748;12.630;2023-04-19T01:53:04;6.90;99.90
26107;DHT22;13866;50.748;12.630;2023-04-19T01:55:30;6.90;99.90
26107;DHT22;13866;50.748;12.630;2023-04-19T01:57:55;6.80;99.90
26107;DHT22;13866;50.748;12.630;2023-04-19T02:00:21;6.80;99.90
26107;DHT22;13866;50.748;12.630;2023-04-19T02:02:47;6.80;99.90
26107;DHT22;13866;50.748;12.630;2023-04-19T02:05:12;6.80;99.90
26107;DHT22;13866;50.748;12.630;2023-04-19T02:07:38;6.80;99.90
26107;DHT22;13866;50.748;12.630;2023-04-19T02:10:04;6.80;99.90
26107;DHT22;13866;50.748;12.630;2023-04-19T02:12:32;6.80;99.90
26107;DHT22;13866;50.748;12.630;2023-04-19T02:14:59;6.80;99.90
26107;DHT22;13866;50.748;12.630;2023-04-19T02:17:26;6.70;99.90
26107;DHT22;13866;50.748;12.630;2023-04-19T02:19:52;6.70;99.90
26107;DHT22;13866;50.748;12.630;2023-04-19T02:22:18;6.70;99.90
26107;DHT22;13866;50.748;12.630;2023-04-19T02:24:44;6.60;99.90
26107;DHT22;13866;50.748;12.630;2023-04-19T02:27:10;6.50;99.90
26107;DHT22;13866;50.748;12.630;2023-04-19T02:29:36;6.50;99.90
26107;DHT22;13866;50.748;12.630;2023-04-19T02:32:02;6.50;99.90
26107;DHT22;13866;50.748;12.630;2023-04-19T02:34:30;6.50;99.90
26107;DHT22;13866;50.748;12.630;2023-04-19T02:36:58;6.50;99.90
26107;DHT22;13866;50.748;12.630;2023-04-19T02:39:24;6.40;99.90
26107;DHT22;13866;50.748;12.630;2023-04-19T02:41:49;6.40;99.90
26107;DHT22;13866;50.748;12.630;2023-04-19T02:44:15;6.30;99.90
26107;DHT22;13866;50.748;12.630;2023-04-19T02:46:40;6.30;99.90
26107;DHT22;13866;50.748;12.630;2023-04-19T02:49:06;6.20;99.90
26107;DHT22;13866;50.748;12.630;2023-04-19T02:51:31;6.30;99.90
26107;DHT22;13866;50.748;12.630;2023-04-19T02:53:57;6.30;99.90
26107;DHT22;13866;50.748;12.630;2023-04-19T02:56:22;6.30;99.90
26107;DHT22;13866;50.748;12.630;2023-04-19T02:58:48;6.20;99.90
26107;DHT22;13866;50.748;12.630;2023-04-19T03:01:13;6.20;99.90
26107;DHT22;13866;50.748;12.630;2023-04-19T03:03:39;6.20;99.90
26107;DHT22;13866;50.748;12.630;2023-04-19T03:06:04;6.10;99.90
26107;DHT22;13866;50.748;12.630;2023-04-19T03:08:30;5.90;99.90
26107;DHT22;13866;50.748;12.630;2023-04-19T03:10:55;5.90;99.90
26107;DHT22;13866;50.748;12.630;2023-04-19T03:13:21;5.80;99.90
26107;DHT22;13866;50.748;12.630;2023-04-19T03:15:47;5.70;99.90
26107;DHT22;13866;50.748;12.630;2023-04-19T03:18:12;5.60;99.90
26107;DHT22;13866;50.748;12.630;2023-04-19T03:20:38;5.60;99.90
26107;DHT22;13866;50.748;12.630;2023-04-19T03:23:04;5.50;99.90
26107;DHT22;13866;50.748;12.630;2023-04-19T03:25:29;5.50;99.90
26107;DHT22;13866;50.748;12.630;2023-04-19T03:27:55;5.40;99.90
26107;DHT22;13866;50.748;12.630;2023-04-19T03:30:20;5.40;99.90
26107;DHT22;13866;50.748;12.630;2023-04-19T03:32:46;5.40;99.90
26107;DHT22;13866;50.748;12.630;2023-04-19T03:35:12;5.40;99.90
26107;DHT22;13866;50.748;12.630;2023-04-19T03:37:38;5.30;99.90
26107;DHT22;13866;50.748;12.630;2023-04-19T03:40:04;5.30;99.90
26107;DHT22;13866;50.748;12.630;2023-04-19T03:42:29;5.30;99.90
26107;DHT22;13866;50.748;12.630;2023-04-19T03:44:55;5.30;99.90
26107;DHT22;13866;50.748;12.630;2023-04-19T03:47:21;5.20;99.90
26107;DHT22;13866;50.748;12.630;2023-04-19T03:49:46;5.20;99.90
26107;DHT22;13866;50.748;12.630;2023-04-19T03:52:12;5.10;99.90
26107;DHT22;13866;50.748;12.630;2023-04-19T03:54:37;5.10;99.90
26107;DHT22;13866;50.748;12.630;2023-04-19T03:57:03;5.10;99.90
26107;DHT22;13866;50.748;12.630;2023-04-19T03:59:28;5.10;99.90
26107;DHT22;13866;50.748;12.630;2023-04-19T04:01:54;5.00;99.90
26107;DHT22;13866;50.748;12.630;2023-04-19T04:04:19;4.90;99.90
26107;DHT22;13866;50.748;12.630;2023-04-19T04:06:45;4.90;99.90
26107;DHT22;13866;50.748;12.630;2023-04-19T04:09:10;4.90;99.90
26107;DHT22;13866;50.748;12.630;2023-04-19T04:11:35;4.80;99.90
26107;DHT22;13866;50.748;12.630;2023-04-19T04:14:01;4.80;99.90
26107;DHT22;13866;50.748;12.630;2023-04-19T04:16:26;4.80;99.90
26107;DHT22;13866;50.748;12.630;2023-04-19T04:18:52;4.80;99.90
26107;DHT22;13866;50.748;12.630;2023-04-19T04:21:17;4.70;99.90
26107;DHT22;13866;50.748;12.630;2023-04-19T04:23:43;4.70;99.90
26107;DHT22;13866;50.748;12.630;2023-04-19T04:26:09;4.70;99.90
26107;DHT22;13866;50.748;12.630;2023-04-19T04:28:35;4.70;99.90
26107;DHT22;13866;50.748;12.630;2023-04-19T04:31:00;4.70;99.90
26107;DHT22;13866;50.748;12.630;2023-04-19T04:33:27;4.70;99.90
26107;DHT22;13866;50.748;12.630;2023-04-19T04:35:53;4.70;99.90
26107;DHT22;13866;50.748;12.630;2023-04-19T04:38:19;4.70;99.90
26107;DHT22;13866;50.748;12.630;2023-04-19T04:40:54;4.60;99.90
26107;DHT22;13866;50.748;12.630;2023-04-19T04:43:21;4.70;99.90
26107;DHT22;13866;50.748;12.630;2023-04-19T04:45:47;4.60;99.90
26107;DHT22;13866;50.748;12.630;2023-04-19T04:48:13;4.70;99.90
26107;DHT22;13866;50.748;12.630;2023-04-19T04:50:38;4.60;99.90
26107;DHT22;13866;50.748;12.630;2023-04-19T04:53:04;4.70;99.90
26107;DHT22;13866;50.748;12.630;2023-04-19T04:55:30;4.60;99.90
26107;DHT22;13866;50.748;12.630;2023-04-19T04:57:55;4.60;99.90
26107;DHT22;13866;50.748;12.630;2023-04-19T05:00:21;4.60;99.90
26107;DHT22;13866;50.748;12.630;2023-04-19T05:02:47;4.60;99.90
26107;DHT22;13866;50.748;12.630;2023-04-19T05:05:13;4.60;99.90
26107;DHT22;13866;50.748;12.630;2023-04-19T05:07:38;4.60;99.90
26107;DHT22;13866;50.748;12.630;2023-04-19T05:10:04;4.60;99.90
26107;DHT22;13866;50.748;12.630;2023-04-19T05:12:30;4.60;99.90
26107;DHT22;13866;50.748;12.630;2023-04-19T05:14:55;4.50;99.90
26107;DHT22;13866;50.748;12.630;2023-04-19T05:17:21;4.50;99.90
26107;DHT22;13866;50.748;12.630;2023-04-19T05:19:46;4.50;99.90
26107;DHT22;13866;50.748;12.630;2023-04-19T05:22:12;4.40;99.90
26107;DHT22;13866;50.748;12.630;2023-04-19T05:24:37;4.40;99.90
26107;DHT22;13866;50.748;12.630;2023-04-19T05:27:03;4.40;99.90
26107;DHT22;13866;50.748;12.630;2023-04-19T05:29:28;4.40;99.90
26107;DHT22;13866;50.748;12.630;2023-04-19T05:31:54;4.30;99.90
26107;DHT22;13866;50.748;12.630;2023-04-19T05:34:19;4.40;99.90
26107;DHT22;13866;50.748;12.630;2023-04-19T05:36:45;4.30;99.90
26107;DHT22;13866;50.748;12.630;2023-04-19T05:39:10;4.30;99.90
26107;DHT22;13866;50.748;12.630;2023-04-19T05:41:36;4.30;99.90
26107;DHT22;13866;50.748;12.630;2023-04-19T05:44:01;4.30;99.90
26107;DHT22;13866;50.748;12.630;2023-04-19T05:46:26;4.20;99.90
26107;DHT22;13866;50.748;12.630;2023-04-19T05:48:52;4.10;99.90
26107;DHT22;13866;50.748;12.630;2023-04-19T05:51:17;4.10;99.90
26107;DHT22;13866;50.748;12.630;2023-04-19T05:53:44;4.10;99.90
26107;DHT22;13866;50.748;12.630;2023-04-19T05:56:10;4.00;99.90
26107;DHT22;13866;50.748;12.630;2023-04-19T05:58:35;4.10;99.90
26107;DHT22;13866;50.748;12.630;2023-04-19T06:01:02;4.00;99.90
26107;DHT22;13866;50.748;12.630;2023-04-19T06:03:28;4.00;99.90
26107;DHT22;13866;50.748;12.630;2023-04-19T06:05:54;4.00;99.90
26107;DHT22;13866;50.748;12.630;2023-04-19T06:08:19;4.00;99.90
26107;DHT22;13866;50.748;12.630;2023-04-19T06:10:45;3.90;99.90
26107;DHT22;13866;50.748;12.630;2023-04-19T06:13:12;3.80;99.90
26107;DHT22;13866;50.748;12.630;2023-04-19T06:15:38;3.80;99.90
26107;DHT22;13866;50.748;12.630;2023-04-19T06:18:04;3.80;99.90
26107;DHT22;13866;50.748;12.630;2023-04-19T06:20:35;3.80;99.90
26107;DHT22;13866;50.748;12.630;2023-04-19T06:23:00;3.80;99.90
26107;DHT22;13866;50.748;12.630;2023-04-19T06:25:26;3.80;99.90
26107;DHT22;13866;50.748;12.630;2023-04-19T06:27:51;3.70;99.90
26107;DHT22;13866;50.748;12.630;2023-04-19T06:30:17;3.70;99.90
26107;DHT22;13866;50.748;12.630;2023-04-19T06:32:42;3.70;99.90
26107;DHT22;13866;50.748;12.630;2023-04-19T06:35:08;3.80;99.90
26107;DHT22;13866;50.748;12.630;2023-04-19T06:37:34;3.90;99.90
26107;DHT22;13866;50.748;12.630;2023-04-19T06:39:59;3.90;99.90
26107;DHT22;13866;50.748;12.630;2023-04-19T06:42:25;4.00;99.90
26107;DHT22;13866;50.748;12.630;2023-04-19T06:44:52;4.00;99.90
26107;DHT22;13866;50.748;12.630;2023-04-19T06:47:17;4.10;99.90
26107;DHT22;13866;50.748;12.630;2023-04-19T06:49:43;4.20;99.90
26107;DHT22;13866;50.748;12.630;2023-04-19T06:52:09;4.40;99.90
26107;DHT22;13866;50.748;12.630;2023-04-19T06:54:34;4.30;99.90
26107;DHT22;13866;50.748;12.630;2023-04-19T06:57:00;4.30;99.90
26107;DHT22;13866;50.748;12.630;2023-04-19T06:59:26;4.30;99.90
26107;DHT22;13866;50.748;12.630;2023-04-19T07:01:53;4.40;99.90
26107;DHT22;13866;50.748;12.630;2023-04-19T07:04:19;4.40;99.90
26107;DHT22;13866;50.748;12.630;2023-04-19T07:06:48;4.30;99.90
26107;DHT22;13866;50.748;12.630;2023-04-19T07:09:14;4.40;99.90
26107;DHT22;13866;50.748;12.630;2023-04-19T07:11:39;4.60;99.90
26107;DHT22;13866;50.748;12.630;2023-04-19T07:14:05;4.70;99.90
26107;DHT22;13866;50.748;12.630;2023-04-19T07:16:31;4.60;99.90
26107;DHT22;13866;50.748;12.630;2023-04-19T07:18:57;4.60;99.90
26107;DHT22;13866;50.748;12.630;2023-04-19T07:21:22;4.60;99.90
26107;DHT22;13866;50.748;12.630;2023-04-19T07:23:50;4.90;99.90
26107;DHT22;13866;50.748;12.630;2023-04-19T07:26:16;5.10;99.90
26107;DHT22;13866;50.748;12.630;2023-04-19T07:28:42;5.30;99.90
26107;DHT22;13866;50.748;12.630;2023-04-19T07:31:14;5.30;99.90
26107;DHT22;13866;50.748;12.630;2023-04-19T07:33:39;5.60;99.90
26107;DHT22;13866;50.748;12.630;2023-04-19T07:36:05;6.10;99.90
26107;DHT22;13866;50.748;12.630;2023-04-19T07:38:31;6.00;99.90
26107;DHT22;13866;50.748;12.630;2023-04-19T07:40:56;5.90;99.90
26107;DHT22;13866;50.748;12.630;2023-04-19T07:43:22;6.30;99.90
26107;DHT22;13866;50.748;12.630;2023-04-19T07:45:47;6.60;99.90
26107;DHT22;13866;50.748;12.630;2023-04-19T07:48:13;6.90;99.90
26107;DHT22;13866;50.748;12.630;2023-04-19T07:50:38;6.80;99.90
26107;DHT22;13866;50.748;12.630;2023-04-19T07:53:03;6.90;99.90
26107;DHT22;13866;50.748;12.630;2023-04-19T07:55:29;6.70;99.90
26107;DHT22;13866;50.748;12.630;2023-04-19T07:57:54;6.90;99.90
26107;DHT22;13866;50.748;12.630;2023-04-19T08:00:20;7.10;99.90
26107;DHT22;13866;50.748;12.630;2023-04-19T08:02:46;7.40;99.90
26107;DHT22;13866;50.748;12.630;2023-04-19T08:05:14;7.40;99.90
26107;DHT22;13866;50.748;12.630;2023-04-19T08:07:42;7.50;99.90
26107;DHT22;13866;50.748;12.630;2023-04-19T08:10:08;7.30;99.90
26107;DHT22;13866;50.748;12.630;2023-04-19T08:12:34;7.20;99.90
26107;DHT22;13866;50.748;12.630;2023-04-19T08:14:59;7.20;99.90
26107;DHT22;13866;50.748;12.630;2023-04-19T08:17:25;7.50;99.90
26107;DHT22;13866;50.748;12.630;2023-04-19T08:19:51;7.60;99.90
26107;DHT22;13866;50.748;12.630;2023-04-19T08:22:17;7.80;99.90
26107;DHT22;13866;50.748;12.630;2023-04-19T08:24:42;7.50;99.90
26107;DHT22;13866;50.748;12.630;2023-04-19T08:27:09;7.40;99.90
26107;DHT22;13866;50.748;12.630;2023-04-19T08:29:35;7.30;99.90
26107;DHT22;13866;50.748;12.630;2023-04-19T08:32:01;7.30;99.90
26107;DHT22;13866;50.748;12.630;2023-04-19T08:34:27;7.60;99.90
26107;DHT22;13866;50.748;12.630;2023-04-19T08:36:52;7.80;99.90
26107;DHT22;13866;50.748;12.630;2023-04-19T08:39:18;7.90;99.90
26107;DHT22;13866;50.748;12.630;2023-04-19T08:41:44;8.00;99.90
26107;DHT22;13866;50.748;12.630;2023-04-19T08:44:13;8.00;99.90
26107;DHT22;13866;50.748;12.630;2023-04-19T08:46:41;8.10;99.90
26107;DHT22;13866;50.748;12.630;2023-04-19T08:49:08;8.30;99.90
26107;DHT22;13866;50.748;12.630;2023-04-19T08:51:35;8.30;99.90
26107;DHT22;13866;50.748;12.630;2023-04-19T08:54:06;8.10;99.90
26107;DHT22;13866;50.748;12.630;2023-04-19T08:56:32;8.40;99.90
26107;DHT22;13866;50.748;12.630;2023-04-19T08:58:57;8.70;99.90
26107;DHT22;13866;50.748;12.630;2023-04-19T09:01:23;8.90;99.90
26107;DHT22;13866;50.748;12.630;2023-04-19T09:03:48;9.20;99.90
26107;DHT22;13866;50.748;12.630;2023-04-19T09:06:14;9.00;99.90
26107;DHT22;13866;50.748;12.630;2023-04-19T09:08:41;8.70;99.90
26107;DHT22;13866;50.748;12.630;2023-04-19T09:11:06;8.80;99.90
26107;DHT22;13866;50.748;12.630;2023-04-19T09:13:32;8.90;99.90
26107;DHT22;13866;50.748;12.630;2023-04-19T09:16:00;8.90;99.90
26107;DHT22;13866;50.748;12.630;2023-04-19T09:18:26;8.90;99.90
26107;DHT22;13866;50.748;12.630;2023-04-19T09:20:52;8.50;99.90
26107;DHT22;13866;50.748;12.630;2023-04-19T09:23:26;8.70;99.90
26107;DHT22;13866;50.748;12.630;2023-04-19T09:25:57;8.80;99.90
26107;DHT22;13866;50.748;12.630;2023-04-19T09:28:27;9.00;99.90
26107;DHT22;13866;50.748;12.630;2023-04-19T09:30:54;9.10;99.90
26107;DHT22;13866;50.748;12.630;2023-04-19T09:33:35;9.00;99.90
26107;DHT22;13866;50.748;12.630;2023-04-19T09:36:03;8.90;99.90
26107;DHT22;13866;50.748;12.630;2023-04-19T09:38:28;9.00;99.90
26107;DHT22;13866;50.748;12.630;2023-04-19T09:41:06;9.00;99.90
26107;DHT22;13866;50.748;12.630;2023-04-19T09:43:32;8.70;99.90
26107;DHT22;13866;50.748;12.630;2023-04-19T09:45:57;9.00;99.90
26107;DHT22;13866;50.748;12.630;2023-04-19T09:48:23;8.90;99.90
26107;DHT22;13866;50.748;12.630;2023-04-19T09:50:58;9.30;99.90
26107;DHT22;13866;50.748;12.630;2023-04-19T09:53:25;9.10;99.90
26107;DHT22;13866;50.748;12.630;2023-04-19T09:55:50;9.30;99.90
26107;DHT22;13866;50.748;12.630;2023-04-19T09:58:17;9.10;99.90
26107;DHT22;13866;50.748;12.630;2023-04-19T10:00:44;9.10;99.90
26107;DHT22;13866;50.748;12.630;2023-04-19T10:03:13;9.40;99.90
26107;DHT22;13866;50.748;12.630;2023-04-19T10:05:40;9.70;99.90
26107;DHT22;13866;50.748;12.630;2023-04-19T10:08:11;9.60;99.90
26107;DHT22;13866;50.748;12.630;2023-04-19T10:10:38;9.30;99.90
26107;DHT22;13866;50.748;12.630;2023-04-19T10:13:10;9.40;99.90
26107;DHT22;13866;50.748;12.630;2023-04-19T10:15:36;9.20;99.90
26107;DHT22;13866;50.748;12.630;2023-04-19T10:18:03;9.50;99.90
26107;DHT22;13866;50.748;12.630;2023-04-19T10:20:35;10.00;99.90
26107;DHT22;13866;50.748;12.630;2023-04-19T10:23:02;10.20;99.90
26107;DHT22;13866;50.748;12.630;2023-04-19T10:25:30;10.30;99.90
26107;DHT22;13866;50.748;12.630;2023-04-19T10:27:56;10.40;99.90
26107;DHT22;13866;50.748;12.630;2023-04-19T10:30:22;10.00;99.90
26107;DHT22;13866;50.748;12.630;2023-04-19T10:32:54;9.90;99.90
26107;DHT22;13866;50.748;12.630;2023-04-19T10:38:10;10.00;99.90
26107;DHT22;13866;50.748;12.630;2023-04-19T10:40:56;9.80;99.90
26107;DHT22;13866;50.748;12.630;2023-04-19T10:43:26;10.20;99.90
26107;DHT22;13866;50.748;12.630;2023-04-19T10:45:52;10.60;99.90
26107;DHT22;13866;50.748;12.630;2023-04-19T10:53:46;10.20;99.90
26107;DHT22;13866;50.748;12.630;2023-04-19T10:56:12;10.10;99.90
26107;DHT22;13866;50.748;12.630;2023-04-19T11:04:12;9.50;99.90
26107;DHT22;13866;50.748;12.630;2023-04-19T11:07:02;10.20;99.90
26107;DHT22;13866;50.748;12.630;2023-04-19T11:09:38;10.70;99.90
26107;DHT22;13866;50.748;12.630;2023-04-19T11:12:15;10.60;99.90
26107;DHT22;13866;50.748;12.630;2023-04-19T11:14:45;10.30;99.90
26107;DHT22;13866;50.748;12.630;2023-04-19T11:17:25;10.40;99.90
26107;DHT22;13866;50.748;12.630;2023-04-19T11:19:56;10.40;99.90
26107;DHT22;13866;50.748;12.630;2023-04-19T11:22:41;10.40;99.90
26107;DHT22;13866;50.748;12.630;2023-04-19T11:25:20;10.70;99.90
26107;DHT22;13866;50.748;12.630;2023-04-19T11:27:48;10.60;99.90
26107;DHT22;13866;50.748;12.630;2023-04-19T11:30:18;10.30;99.90
26107;DHT22;13866;50.748;12.630;2023-04-19T11:32:46;10.50;99.90
26107;DHT22;13866;50.748;12.630;2023-04-19T11:35:12;10.10;99.90
26107;DHT22;13866;50.748;12.630;2023-04-19T11:37:38;9.80;99.90
26107;DHT22;13866;50.748;12.630;2023-04-19T11:40:07;9.40;99.90
26107;DHT22;13866;50.748;12.630;2023-04-19T11:42:33;9.30;99.90
26107;DHT22;13866;50.748;12.630;2023-04-19T11:44:59;9.40;99.90
26107;DHT22;13866;50.748;12.630;2023-04-19T11:47:27;9.30;99.90
26107;DHT22;13866;50.748;12.630;2023-04-19T11:49:54;10.00;99.90
26107;DHT22;13866;50.748;12.630;2023-04-19T11:52:22;9.50;99.90
26107;DHT22;13866;50.748;12.630;2023-04-19T11:54:50;9.20;99.90
26107;DHT22;13866;50.748;12.630;2023-04-19T11:57:26;9.10;99.90
26107;DHT22;13866;50.748;12.630;2023-04-19T12:02:36;9.60;99.90
26107;DHT22;13866;50.748;12.630;2023-04-19T12:05:09;9.70;99.90
26107;DHT22;13866;50.748;12.630;2023-04-19T12:07:36;9.50;99.90
26107;DHT22;13866;50.748;12.630;2023-04-19T12:10:08;9.40;99.90
26107;DHT22;13866;50.748;12.630;2023-04-19T12:12:35;9.20;99.90
26107;DHT22;13866;50.748;12.630;2023-04-19T12:15:00;9.20;99.90
26107;DHT22;13866;50.748;12.630;2023-04-19T12:17:26;9.30;99.90
26107;DHT22;13866;50.748;12.630;2023-04-19T12:19:52;9.30;99.90
26107;DHT22;13866;50.748;12.630;2023-04-19T12:22:18;9.40;99.90
26107;DHT22;13866;50.748;12.630;2023-04-19T12:24:45;9.40;99.90
26107;DHT22;13866;50.748;12.630;2023-04-19T12:27:11;9.30;99.90
26107;DHT22;13866;50.748;12.630;2023-04-19T12:29:37;9.20;99.90
26107;DHT22;13866;50.748;12.630;2023-04-19T12:32:03;8.90;99.90
26107;DHT22;13866;50.748;12.630;2023-04-19T12:34:29;8.90;99.90
26107;DHT22;13866;50.748;12.630;2023-04-19T12:36:55;9.00;99.90
26107;DHT22;13866;50.748;12.630;2023-04-19T12:39:20;9.00;99.90
26107;DHT22;13866;50.748;12.630;2023-04-19T12:41:46;8.70;99.90
26107;DHT22;13866;50.748;12.630;2023-04-19T12:44:13;8.00;99.90
26107;DHT22;13866;50.748;12.630;2023-04-19T12:46:39;7.90;99.90
26107;DHT22;13866;50.748;12.630;2023-04-19T12:49:04;7.60;99.90
26107;DHT22;13866;50.748;12.630;2023-04-19T12:51:30;7.60;99.90
26107;DHT22;13866;50.748;12.630;2023-04-19T12:53:56;7.80;99.90
26107;DHT22;13866;50.748;12.630;2023-04-19T12:56:21;7.80;99.90
26107;DHT22;13866;50.748;12.630;2023-04-19T12:58:47;7.70;99.90
26107;DHT22;13866;50.748;12.630;2023-04-19T13:01:12;7.80;99.90
26107;DHT22;13866;50.748;12.630;2023-04-19T13:03:38;8.20;99.90
26107;DHT22;13866;50.748;12.630;2023-04-19T13:06:03;8.80;99.90
26107;DHT22;13866;50.748;12.630;2023-04-19T13:08:29;9.10;99.90
26107;DHT22;13866;50.748;12.630;2023-04-19T13:10:55;9.20;99.90
26107;DHT22;13866;50.748;12.630;2023-04-19T13:13:20;9.30;99.90
26107;DHT22;13866;50.748;12.630;2023-04-19T13:15:46;9.60;99.90
26107;DHT22;13866;50.748;12.630;2023-04-19T13:18:11;9.60;99.90
26107;DHT22;13866;50.748;12.630;2023-04-19T13:20:37;9.30;99.90
26107;DHT22;13866;50.748;12.630;2023-04-19T13:23:02;9.20;99.90
26107;DHT22;13866;50.748;12.630;2023-04-19T13:25:28;9.20;99.90
26107;DHT22;13866;50.748;12.630;2023-04-19T13:27:53;9.20;99.90
26107;DHT22;13866;50.748;12.630;2023-04-19T13:30:19;9.20;99.90
26107;DHT22;13866;50.748;12.630;2023-04-19T13:32:44;8.90;99.90
26107;DHT22;13866;50.748;12.630;2023-04-19T13:35:10;9.20;99.90
26107;DHT22;13866;50.748;12.630;2023-04-19T13:37:35;9.70;99.90
26107;DHT22;13866;50.748;12.630;2023-04-19T13:40:01;10.20;99.90
26107;DHT22;13866;50.748;12.630;2023-04-19T13:42:28;10.30;99.90
26107;DHT22;13866;50.748;12.630;2023-04-19T13:44:53;10.50;99.90
26107;DHT22;13866;50.748;12.630;2023-04-19T13:47:19;10.70;99.90
26107;DHT22;13866;50.748;12.630;2023-04-19T13:49:44;10.70;99.90
26107;DHT22;13866;50.748;12.630;2023-04-19T13:52:16;10.80;99.90
26107;DHT22;13866;50.748;12.630;2023-04-19T13:54:42;10.50;99.90
26107;DHT22;13866;50.748;12.630;2023-04-19T13:57:07;10.20;99.90
26107;DHT22;13866;50.748;12.630;2023-04-19T13:59:33;9.80;99.90
26107;DHT22;13866;50.748;12.630;2023-04-19T14:01:58;8.70;99.90
26107;DHT22;13866;50.748;12.630;2023-04-19T14:04:24;7.90;99.90
26107;DHT22;13866;50.748;12.630;2023-04-19T14:06:49;7.10;99.90
26107;DHT22;13866;50.748;12.630;2023-04-19T14:09:15;6.60;99.90
26107;DHT22;13866;50.748;12.630;2023-04-19T14:11:40;6.80;99.90
26107;DHT22;13866;50.748;12.630;2023-04-19T14:14:06;6.60;99.90
26107;DHT22;13866;50.748;12.630;2023-04-19T14:16:31;6.80;99.90
26107;DHT22;13866;50.748;12.630;2023-04-19T14:18:57;6.80;99.90
26107;DHT22;13866;50.748;12.630;2023-04-19T14:21:22;7.00;99.90
26107;DHT22;13866;50.748;12.630;2023-04-19T14:23:48;7.00;99.90
26107;DHT22;13866;50.748;12.630;2023-04-19T14:26:14;7.00;99.90
26107;DHT22;13866;50.748;12.630;2023-04-19T14:28:39;7.20;99.90
26107;DHT22;13866;50.748;12.630;2023-04-19T14:31:06;7.30;99.90
26107;DHT22;13866;50.748;12.630;2023-04-19T14:33:31;7.30;99.90
26107;DHT22;13866;50.748;12.630;2023-04-19T14:35:57;7.30;99.90
26107;DHT22;13866;50.748;12.630;2023-04-19T14:38:22;7.40;99.90
26107;DHT22;13866;50.748;12.630;2023-04-19T14:40:48;7.60;99.90
26107;DHT22;13866;50.748;12.630;2023-04-19T14:43:14;7.70;99.90
26107;DHT22;13866;50.748;12.630;2023-04-19T14:45:40;7.70;99.90
26107;DHT22;13866;50.748;12.630;2023-04-19T14:48:06;7.70;99.90
26107;DHT22;13866;50.748;12.630;2023-04-19T14:50:31;7.90;99.90
26107;DHT22;13866;50.748;12.630;2023-04-19T14:52:57;8.00;99.90
26107;DHT22;13866;50.748;12.630;2023-04-19T14:55:22;8.10;99.90
26107;DHT22;13866;50.748;12.630;2023-04-19T14:57:49;8.20;99.90
26107;DHT22;13866;50.748;12.630;2023-04-19T15:00:18;8.40;99.90
26107;DHT22;13866;50.748;12.630;2023-04-19T15:02:44;8.50;99.90
26107;DHT22;13866;50.748;12.630;2023-04-19T15:05:12;8.70;99.90
26107;DHT22;13866;50.748;12.630;2023-04-19T15:07:40;9.00;99.90
26107;DHT22;13866;50.748;12.630;2023-04-19T15:10:12;9.00;99.90
26107;DHT22;13866;50.748;12.630;2023-04-19T15:12:42;9.20;99.90
26107;DHT22;13866;50.748;12.630;2023-04-19T15:15:20;9.30;99.90
26107;DHT22;13866;50.748;12.630;2023-04-19T15:17:45;9.30;99.90
26107;DHT22;13866;50.748;12.630;2023-04-19T15:20:12;9.30;99.90
26107;DHT22;13866;50.748;12.630;2023-04-19T15:22:38;9.30;99.90
26107;DHT22;13866;50.748;12.630;2023-04-19T15:25:04;9.30;99.90
26107;DHT22;13866;50.748;12.630;2023-04-19T15:27:29;9.30;99.90
26107;DHT22;13866;50.748;12.630;2023-04-19T15:30:13;9.40;99.90
26107;DHT22;13866;50.748;12.630;2023-04-19T15:32:39;9.60;99.90
26107;DHT22;13866;50.748;12.630;2023-04-19T15:35:04;9.40;99.90
26107;DHT22;13866;50.748;12.630;2023-04-19T15:37:30;8.50;99.90
26107;DHT22;13866;50.748;12.630;2023-04-19T15:39:56;7.80;99.90
26107;DHT22;13866;50.748;12.630;2023-04-19T15:42:39;7.30;99.90